LNI284 WIII-WIDD
Flight info
| Callsign | LNI284 |
|---|---|
| Flight time | N/A |
| Altitude | 32000 |
| Route | DOLTA2B/07R DOLTA A585 PLB T25 IGUTU |
| Aircraft | B739/M-SDE2E3FGHIRWXY/LB1 |
Departure
| Time | N/A |
|---|---|
| Airport | Soekarno-Hatta International Airport (WIII) |
Arrival
| Time | 2026-05-07 15:11 |
|---|---|
| Airport | Hang Nadim International Airport (WIDD) |
| Time | Latitude | Longitude | Altitude | Speed | Heading |
|---|---|---|---|---|---|
| 2026-05-07 14:57 | 0.21604 | 104.23093 | 15799 ft | 355 kts | 351° |
| 2026-05-07 14:57 | 0.23991 | 104.22631 | 15391 ft | 345 kts | 351° |
| 2026-05-07 14:57 | 0.26313 | 104.22183 | 14990 ft | 335 kts | 351° |
| 2026-05-07 14:58 | 0.28575 | 104.21747 | 14607 ft | 327 kts | 351° |
| 2026-05-07 14:58 | 0.30782 | 104.21321 | 14217 ft | 319 kts | 351° |
| 2026-05-07 14:58 | 0.32965 | 104.20901 | 13836 ft | 320 kts | 351° |
| 2026-05-07 14:58 | 0.35149 | 104.20480 | 13422 ft | 320 kts | 351° |
| 2026-05-07 14:59 | 0.37331 | 104.20060 | 13019 ft | 319 kts | 351° |
| 2026-05-07 14:59 | 0.39506 | 104.19641 | 12634 ft | 318 kts | 350° |
| 2026-05-07 14:59 | 0.41671 | 104.19223 | 12239 ft | 316 kts | 350° |
| 2026-05-07 14:59 | 0.43831 | 104.18806 | 11860 ft | 315 kts | 350° |
| 2026-05-07 15:00 | 0.45983 | 104.18391 | 11480 ft | 315 kts | 350° |
| 2026-05-07 15:00 | 0.48128 | 104.17977 | 11114 ft | 314 kts | 350° |
| 2026-05-07 15:00 | 0.50269 | 104.17564 | 10735 ft | 313 kts | 350° |
| 2026-05-07 15:00 | 0.52406 | 104.17152 | 10347 ft | 313 kts | 350° |
| 2026-05-07 15:01 | 0.54520 | 104.16744 | 10181 ft | 305 kts | 350° |
| 2026-05-07 15:01 | 0.56578 | 104.16351 | 10022 ft | 296 kts | 350° |
| 2026-05-07 15:01 | 0.58573 | 104.15975 | 9871 ft | 288 kts | 350° |
| 2026-05-07 15:01 | 0.60546 | 104.15605 | 9513 ft | 288 kts | 350° |
| 2026-05-07 15:02 | 0.62511 | 104.15235 | 9181 ft | 287 kts | 350° |
| 2026-05-07 15:02 | 0.64473 | 104.14866 | 8840 ft | 286 kts | 350° |
| 2026-05-07 15:02 | 0.66399 | 104.14503 | 8506 ft | 285 kts | 350° |
| 2026-05-07 15:02 | 0.68347 | 104.14136 | 8166 ft | 284 kts | 350° |
| 2026-05-07 15:03 | 0.70286 | 104.13784 | 7939 ft | 279 kts | 351° |
| 2026-05-07 15:03 | 0.72184 | 104.13457 | 7624 ft | 279 kts | 351° |
| 2026-05-07 15:03 | 0.74090 | 104.13130 | 7328 ft | 278 kts | 350° |
| 2026-05-07 15:03 | 0.75995 | 104.12802 | 6999 ft | 278 kts | 350° |
| 2026-05-07 15:04 | 0.77922 | 104.12450 | 6673 ft | 278 kts | 345° |
| 2026-05-07 15:04 | 0.79629 | 104.11625 | 6350 ft | 277 kts | 325° |
| 2026-05-07 15:04 | 0.81218 | 104.10541 | 5992 ft | 278 kts | 325° |
| 2026-05-07 15:04 | 0.82805 | 104.09454 | 5671 ft | 276 kts | 325° |
| 2026-05-07 15:05 | 0.84390 | 104.08374 | 5334 ft | 275 kts | 325° |
| 2026-05-07 15:05 | 0.85970 | 104.07302 | 5009 ft | 275 kts | 325° |
| 2026-05-07 15:05 | 0.87551 | 104.06233 | 4683 ft | 274 kts | 325° |
| 2026-05-07 15:05 | 0.89131 | 104.05168 | 4348 ft | 274 kts | 325° |
| 2026-05-07 15:06 | 0.90708 | 104.04106 | 4025 ft | 274 kts | 325° |
| 2026-05-07 15:06 | 0.92280 | 104.03049 | 3828 ft | 267 kts | 325° |
| 2026-05-07 15:06 | 0.93799 | 104.02028 | 3685 ft | 258 kts | 325° |
| 2026-05-07 15:06 | 0.95249 | 104.01054 | 3553 ft | 244 kts | 325° |
| 2026-05-07 15:07 | 0.96650 | 104.00188 | 3421 ft | 231 kts | 339° |
| 2026-05-07 15:07 | 0.98215 | 104.00051 | 3200 ft | 227 kts | 17° |
| 2026-05-07 15:07 | 0.99550 | 104.00824 | 2964 ft | 219 kts | 40° |
| 2026-05-07 15:07 | 1.00705 | 104.01780 | 2668 ft | 211 kts | 41° |
| 2026-05-07 15:08 | 1.01783 | 104.02725 | 2402 ft | 203 kts | 43° |
| 2026-05-07 15:08 | 1.02829 | 104.03656 | 2137 ft | 199 kts | 42° |
| 2026-05-07 15:08 | 1.03851 | 104.04565 | 1878 ft | 191 kts | 43° |
| 2026-05-07 15:08 | 1.04808 | 104.05415 | 1643 ft | 177 kts | 43° |
| 2026-05-07 15:09 | 1.05704 | 104.06211 | 1427 ft | 170 kts | 43° |
| 2026-05-07 15:09 | 1.06596 | 104.07003 | 1231 ft | 173 kts | 43° |
| 2026-05-07 15:09 | 1.07487 | 104.07794 | 1030 ft | 166 kts | 43° |
| 2026-05-07 15:09 | 1.08330 | 104.08543 | 784 ft | 156 kts | 42° |
| 2026-05-07 15:10 | 1.09118 | 104.09243 | 582 ft | 149 kts | 41° |
| 2026-05-07 15:10 | 1.09900 | 104.09938 | 407 ft | 152 kts | 41° |
| 2026-05-07 15:10 | 1.10698 | 104.10640 | 223 ft | 152 kts | 41° |
| 2026-05-07 15:10 | 1.11458 | 104.11316 | 136 ft | 127 kts | 41° |
| 2026-05-07 15:11 | 1.11961 | 104.11760 | 135 ft | 66 kts | 41° |
| 2026-05-07 15:11 | 1.12214 | 104.11982 | 137 ft | 43 kts | 41° |
| 2026-05-07 15:11 | 1.12429 | 104.12162 | 136 ft | 36 kts | 33° |
| 2026-05-07 15:11 | 1.12640 | 104.12236 | 135 ft | 20 kts | 12° |
| 2026-05-07 15:12 | 1.12705 | 104.12200 | 136 ft | 11 kts | 243° |
| 2026-05-07 15:12 | 1.12649 | 104.12147 | 136 ft | 11 kts | 221° |
| 2026-05-07 15:12 | 1.12593 | 104.12097 | 136 ft | 11 kts | 221° |
| 2026-05-07 15:12 | 1.12538 | 104.12049 | 136 ft | 10 kts | 221° |
| 2026-05-07 15:13 | 1.12482 | 104.11999 | 136 ft | 13 kts | 221° |
| 2026-05-07 15:13 | 1.12410 | 104.11936 | 136 ft | 14 kts | 221° |
| 2026-05-07 15:13 | 1.12339 | 104.11871 | 137 ft | 13 kts | 229° |
| 2026-05-07 15:13 | 1.12349 | 104.11787 | 136 ft | 13 kts | 258° |
| 2026-05-07 15:14 | 1.12349 | 104.11708 | 136 ft | 12 kts | 308° |
| 2026-05-07 15:14 | 1.12364 | 104.11690 | 136 ft | 0 kts | 312° |